sensor_id;sensor_type;location;lat;lon;timestamp;temperature;humidity
60293;DHT22;52402;52.670;6.750;2022-09-27T00:01:20;10.50;99.90
60293;DHT22;52402;52.670;6.750;2022-09-27T00:03:46;10.40;99.90
60293;DHT22;52402;52.670;6.750;2022-09-27T00:08:38;10.40;99.90
60293;DHT22;52402;52.670;6.750;2022-09-27T00:11:15;10.40;99.90
60293;DHT22;52402;52.670;6.750;2022-09-27T00:13:42;10.40;99.90
60293;DHT22;52402;52.670;6.750;2022-09-27T00:16:08;10.30;99.90
60293;DHT22;52402;52.670;6.750;2022-09-27T00:18:34;10.30;99.90
60293;DHT22;52402;52.670;6.750;2022-09-27T00:21:09;10.30;99.90
60293;DHT22;52402;52.670;6.750;2022-09-27T00:23:35;10.30;99.90
60293;DHT22;52402;52.670;6.750;2022-09-27T00:26:03;10.30;99.90
60293;DHT22;52402;52.670;6.750;2022-09-27T00:28:29;10.20;99.90
60293;DHT22;52402;52.670;6.750;2022-09-27T00:30:55;10.20;99.90
60293;DHT22;52402;52.670;6.750;2022-09-27T00:33:21;10.10;99.90
60293;DHT22;52402;52.670;6.750;2022-09-27T00:35:46;10.10;99.90
60293;DHT22;52402;52.670;6.750;2022-09-27T00:38:12;10.00;99.90
60293;DHT22;52402;52.670;6.750;2022-09-27T00:40:38;10.00;99.90
60293;DHT22;52402;52.670;6.750;2022-09-27T00:43:17;9.90;99.90
60293;DHT22;52402;52.670;6.750;2022-09-27T00:45:54;9.90;99.90
60293;DHT22;52402;52.670;6.750;2022-09-27T00:48:24;9.80;99.90
60293;DHT22;52402;52.670;6.750;2022-09-27T00:50:53;9.80;99.90
60293;DHT22;52402;52.670;6.750;2022-09-27T00:53:25;9.60;99.90
60293;DHT22;52402;52.670;6.750;2022-09-27T00:56:04;9.60;99.90
60293;DHT22;52402;52.670;6.750;2022-09-27T00:58:35;9.60;99.90
60293;DHT22;52402;52.670;6.750;2022-09-27T01:01:04;9.60;99.90
60293;DHT22;52402;52.670;6.750;2022-09-27T01:03:50;9.50;99.90
60293;DHT22;52402;52.670;6.750;2022-09-27T01:06:18;9.50;99.90
60293;DHT22;52402;52.670;6.750;2022-09-27T01:08:45;9.40;99.90
60293;DHT22;52402;52.670;6.750;2022-09-27T01:28:21;9.20;99.90
60293;DHT22;52402;52.670;6.750;2022-09-27T01:31:01;9.20;99.90
60293;DHT22;52402;52.670;6.750;2022-09-27T01:42:02;9.20;99.90
60293;DHT22;52402;52.670;6.750;2022-09-27T01:44:40;9.20;99.90
60293;DHT22;52402;52.670;6.750;2022-09-27T01:47:21;9.20;99.90
60293;DHT22;52402;52.670;6.750;2022-09-27T01:50:00;9.20;99.90
60293;DHT22;52402;52.670;6.750;2022-09-27T01:52:52;9.30;99.90
60293;DHT22;52402;52.670;6.750;2022-09-27T01:55:20;9.30;99.90
60293;DHT22;52402;52.670;6.750;2022-09-27T01:57:58;9.30;99.90
60293;DHT22;52402;52.670;6.750;2022-09-27T02:00:26;9.30;99.90
60293;DHT22;52402;52.670;6.750;2022-09-27T02:02:58;9.30;99.90
60293;DHT22;52402;52.670;6.750;2022-09-27T02:05:29;9.40;99.90
60293;DHT22;52402;52.670;6.750;2022-09-27T02:08:05;9.40;99.90
60293;DHT22;52402;52.670;6.750;2022-09-27T02:10:35;9.40;99.90
60293;DHT22;52402;52.670;6.750;2022-09-27T02:13:11;9.40;99.90
60293;DHT22;52402;52.670;6.750;2022-09-27T02:15:53;9.40;99.90
60293;DHT22;52402;52.670;6.750;2022-09-27T02:18:40;9.40;99.90
60293;DHT22;52402;52.670;6.750;2022-09-27T02:21:10;9.40;99.90
60293;DHT22;52402;52.670;6.750;2022-09-27T02:23:45;9.30;99.90
60293;DHT22;52402;52.670;6.750;2022-09-27T02:26:45;9.30;99.90
60293;DHT22;52402;52.670;6.750;2022-09-27T02:29:21;9.30;99.90
60293;DHT22;52402;52.670;6.750;2022-09-27T02:31:48;9.30;99.90
60293;DHT22;52402;52.670;6.750;2022-09-27T02:34:23;9.20;99.90
60293;DHT22;52402;52.670;6.750;2022-09-27T02:36:50;9.30;99.90
60293;DHT22;52402;52.670;6.750;2022-09-27T02:39:18;9.30;99.90
60293;DHT22;52402;52.670;6.750;2022-09-27T02:41:44;9.20;99.90
60293;DHT22;52402;52.670;6.750;2022-09-27T02:44:12;9.20;99.90
60293;DHT22;52402;52.670;6.750;2022-09-27T02:49:18;9.20;99.90
60293;DHT22;52402;52.670;6.750;2022-09-27T02:52:14;9.20;99.90
60293;DHT22;52402;52.670;6.750;2022-09-27T02:55:04;9.20;99.90
60293;DHT22;52402;52.670;6.750;2022-09-27T02:57:35;9.20;99.90
60293;DHT22;52402;52.670;6.750;2022-09-27T03:00:09;9.20;99.90
60293;DHT22;52402;52.670;6.750;2022-09-27T03:02:50;9.20;99.90
60293;DHT22;52402;52.670;6.750;2022-09-27T03:05:22;9.20;99.90
60293;DHT22;52402;52.670;6.750;2022-09-27T03:07:49;9.10;99.90
60293;DHT22;52402;52.670;6.750;2022-09-27T03:10:17;9.10;99.90
60293;DHT22;52402;52.670;6.750;2022-09-27T03:12:43;9.10;99.90
60293;DHT22;52402;52.670;6.750;2022-09-27T03:15:10;9.00;99.90
60293;DHT22;52402;52.670;6.750;2022-09-27T03:17:36;9.00;99.90
60293;DHT22;52402;52.670;6.750;2022-09-27T03:20:02;9.00;99.90
60293;DHT22;52402;52.670;6.750;2022-09-27T03:22:29;9.00;99.90
60293;DHT22;52402;52.670;6.750;2022-09-27T03:24:54;8.90;99.90
60293;DHT22;52402;52.670;6.750;2022-09-27T03:27:21;8.90;99.90
60293;DHT22;52402;52.670;6.750;2022-09-27T03:29:46;8.90;99.90
60293;DHT22;52402;52.670;6.750;2022-09-27T03:32:12;8.90;99.90
60293;DHT22;52402;52.670;6.750;2022-09-27T03:34:38;8.80;99.90
60293;DHT22;52402;52.670;6.750;2022-09-27T03:37:03;8.90;99.90
60293;DHT22;52402;52.670;6.750;2022-09-27T03:39:29;8.80;99.90
60293;DHT22;52402;52.670;6.750;2022-09-27T03:41:55;8.80;99.90
60293;DHT22;52402;52.670;6.750;2022-09-27T03:44:21;8.80;99.90
60293;DHT22;52402;52.670;6.750;2022-09-27T03:46:46;8.80;99.90
60293;DHT22;52402;52.670;6.750;2022-09-27T03:49:12;8.70;99.90
60293;DHT22;52402;52.670;6.750;2022-09-27T03:51:37;8.70;99.90
60293;DHT22;52402;52.670;6.750;2022-09-27T03:54:03;8.60;99.90
60293;DHT22;52402;52.670;6.750;2022-09-27T03:56:30;8.60;99.90
60293;DHT22;52402;52.670;6.750;2022-09-27T03:58:56;8.60;99.90
60293;DHT22;52402;52.670;6.750;2022-09-27T04:01:21;8.60;99.90
60293;DHT22;52402;52.670;6.750;2022-09-27T04:03:47;8.50;99.90
60293;DHT22;52402;52.670;6.750;2022-09-27T04:06:13;8.60;99.90
60293;DHT22;52402;52.670;6.750;2022-09-27T04:08:39;8.50;99.90
60293;DHT22;52402;52.670;6.750;2022-09-27T04:11:05;8.60;99.90
60293;DHT22;52402;52.670;6.750;2022-09-27T04:13:30;8.50;99.90
60293;DHT22;52402;52.670;6.750;2022-09-27T04:15:56;8.50;99.90
60293;DHT22;52402;52.670;6.750;2022-09-27T04:18:21;8.50;99.90
60293;DHT22;52402;52.670;6.750;2022-09-27T04:20:47;8.60;99.90
60293;DHT22;52402;52.670;6.750;2022-09-27T04:23:12;8.60;99.90
60293;DHT22;52402;52.670;6.750;2022-09-27T04:25:38;8.60;99.90
60293;DHT22;52402;52.670;6.750;2022-09-27T04:28:04;8.60;99.90
60293;DHT22;52402;52.670;6.750;2022-09-27T04:30:30;8.60;99.90
60293;DHT22;52402;52.670;6.750;2022-09-27T04:32:56;8.50;99.90
60293;DHT22;52402;52.670;6.750;2022-09-27T04:35:22;8.50;99.90
60293;DHT22;52402;52.670;6.750;2022-09-27T04:38:06;8.50;99.90
60293;DHT22;52402;52.670;6.750;2022-09-27T04:40:35;8.50;99.90
60293;DHT22;52402;52.670;6.750;2022-09-27T04:43:01;8.50;99.90
60293;DHT22;52402;52.670;6.750;2022-09-27T04:45:28;8.40;99.90
60293;DHT22;52402;52.670;6.750;2022-09-27T04:47:54;8.40;99.90
60293;DHT22;52402;52.670;6.750;2022-09-27T04:50:19;8.40;99.90
60293;DHT22;52402;52.670;6.750;2022-09-27T04:52:50;8.40;99.90
60293;DHT22;52402;52.670;6.750;2022-09-27T04:55:17;8.40;99.90
60293;DHT22;52402;52.670;6.750;2022-09-27T04:57:42;8.40;99.90
60293;DHT22;52402;52.670;6.750;2022-09-27T05:00:08;8.40;99.90
60293;DHT22;52402;52.670;6.750;2022-09-27T05:02:34;8.40;99.90
60293;DHT22;52402;52.670;6.750;2022-09-27T05:05:00;8.40;99.90
60293;DHT22;52402;52.670;6.750;2022-09-27T05:07:26;8.40;99.90
60293;DHT22;52402;52.670;6.750;2022-09-27T05:09:52;8.40;99.90
60293;DHT22;52402;52.670;6.750;2022-09-27T05:12:18;8.40;99.90
60293;DHT22;52402;52.670;6.750;2022-09-27T05:14:44;8.40;99.90
60293;DHT22;52402;52.670;6.750;2022-09-27T05:17:10;8.40;99.90
60293;DHT22;52402;52.670;6.750;2022-09-27T05:19:39;8.40;99.90
60293;DHT22;52402;52.670;6.750;2022-09-27T05:22:06;8.40;99.90
60293;DHT22;52402;52.670;6.750;2022-09-27T05:24:32;8.40;99.90
60293;DHT22;52402;52.670;6.750;2022-09-27T05:27:00;8.40;99.90
60293;DHT22;52402;52.670;6.750;2022-09-27T05:29:27;8.40;99.90
60293;DHT22;52402;52.670;6.750;2022-09-27T05:31:53;8.30;99.90
60293;DHT22;52402;52.670;6.750;2022-09-27T05:34:19;8.30;99.90
60293;DHT22;52402;52.670;6.750;2022-09-27T05:36:48;8.30;99.90
60293;DHT22;52402;52.670;6.750;2022-09-27T05:39:15;8.30;99.90
60293;DHT22;52402;52.670;6.750;2022-09-27T05:41:44;8.30;99.90
60293;DHT22;52402;52.670;6.750;2022-09-27T05:44:10;8.30;99.90
60293;DHT22;52402;52.670;6.750;2022-09-27T05:46:38;8.20;99.90
60293;DHT22;52402;52.670;6.750;2022-09-27T05:49:04;8.20;99.90
60293;DHT22;52402;52.670;6.750;2022-09-27T05:51:30;8.20;99.90
60293;DHT22;52402;52.670;6.750;2022-09-27T05:53:56;8.20;99.90
60293;DHT22;52402;52.670;6.750;2022-09-27T05:56:22;8.20;99.90
60293;DHT22;52402;52.670;6.750;2022-09-27T05:58:49;8.20;99.90
60293;DHT22;52402;52.670;6.750;2022-09-27T06:01:16;8.10;99.90
60293;DHT22;52402;52.670;6.750;2022-09-27T06:03:42;8.10;99.90
60293;DHT22;52402;52.670;6.750;2022-09-27T06:06:07;8.10;99.90
60293;DHT22;52402;52.670;6.750;2022-09-27T06:08:37;8.10;99.90
60293;DHT22;52402;52.670;6.750;2022-09-27T06:11:06;8.10;99.90
60293;DHT22;52402;52.670;6.750;2022-09-27T06:13:32;8.10;99.90
60293;DHT22;52402;52.670;6.750;2022-09-27T06:15:58;8.00;99.90
60293;DHT22;52402;52.670;6.750;2022-09-27T06:18:24;8.00;99.90
60293;DHT22;52402;52.670;6.750;2022-09-27T06:20:50;8.10;99.90
60293;DHT22;52402;52.670;6.750;2022-09-27T06:23:18;8.10;99.90
60293;DHT22;52402;52.670;6.750;2022-09-27T06:25:44;8.10;99.90
60293;DHT22;52402;52.670;6.750;2022-09-27T06:28:12;8.20;99.90
60293;DHT22;52402;52.670;6.750;2022-09-27T06:30:39;8.20;99.90
60293;DHT22;52402;52.670;6.750;2022-09-27T06:33:06;8.20;99.90
60293;DHT22;52402;52.670;6.750;2022-09-27T06:35:34;8.20;99.90
60293;DHT22;52402;52.670;6.750;2022-09-27T06:38:03;8.30;99.90
60293;DHT22;52402;52.670;6.750;2022-09-27T06:40:29;8.30;99.90
60293;DHT22;52402;52.670;6.750;2022-09-27T06:43:04;8.40;99.90
60293;DHT22;52402;52.670;6.750;2022-09-27T06:45:31;8.40;99.90
60293;DHT22;52402;52.670;6.750;2022-09-27T06:47:57;8.40;99.90
60293;DHT22;52402;52.670;6.750;2022-09-27T06:50:29;8.50;99.90
60293;DHT22;52402;52.670;6.750;2022-09-27T06:52:55;8.50;99.90
60293;DHT22;52402;52.670;6.750;2022-09-27T06:55:20;8.50;99.90
60293;DHT22;52402;52.670;6.750;2022-09-27T06:57:46;8.60;99.90
60293;DHT22;52402;52.670;6.750;2022-09-27T07:00:31;8.60;99.90
60293;DHT22;52402;52.670;6.750;2022-09-27T07:02:57;8.70;99.90
60293;DHT22;52402;52.670;6.750;2022-09-27T07:05:29;8.80;99.90
60293;DHT22;52402;52.670;6.750;2022-09-27T07:07:57;8.90;99.90
60293;DHT22;52402;52.670;6.750;2022-09-27T07:10:24;9.10;99.90
60293;DHT22;52402;52.670;6.750;2022-09-27T07:12:50;9.20;99.90
60293;DHT22;52402;52.670;6.750;2022-09-27T07:15:17;9.20;99.90
60293;DHT22;52402;52.670;6.750;2022-09-27T07:17:44;9.30;99.90
60293;DHT22;52402;52.670;6.750;2022-09-27T07:20:09;9.30;99.90
60293;DHT22;52402;52.670;6.750;2022-09-27T07:22:40;9.40;99.90
60293;DHT22;52402;52.670;6.750;2022-09-27T07:25:10;9.50;99.90
60293;DHT22;52402;52.670;6.750;2022-09-27T07:27:35;9.60;99.90
60293;DHT22;52402;52.670;6.750;2022-09-27T07:30:01;9.80;99.90
60293;DHT22;52402;52.670;6.750;2022-09-27T07:32:27;9.90;99.90
60293;DHT22;52402;52.670;6.750;2022-09-27T07:34:53;10.00;99.90
60293;DHT22;52402;52.670;6.750;2022-09-27T07:37:19;10.10;99.90
60293;DHT22;52402;52.670;6.750;2022-09-27T07:39:44;10.20;99.90
60293;DHT22;52402;52.670;6.750;2022-09-27T07:42:10;10.20;99.90
60293;DHT22;52402;52.670;6.750;2022-09-27T07:44:36;10.20;99.90
60293;DHT22;52402;52.670;6.750;2022-09-27T07:47:06;10.30;99.90
60293;DHT22;52402;52.670;6.750;2022-09-27T07:49:32;10.40;99.90
60293;DHT22;52402;52.670;6.750;2022-09-27T07:51:58;10.50;99.90
60293;DHT22;52402;52.670;6.750;2022-09-27T07:54:23;10.60;99.90
60293;DHT22;52402;52.670;6.750;2022-09-27T07:56:49;10.60;99.90
60293;DHT22;52402;52.670;6.750;2022-09-27T07:59:15;10.60;99.90
60293;DHT22;52402;52.670;6.750;2022-09-27T08:01:41;10.60;99.90
60293;DHT22;52402;52.670;6.750;2022-09-27T08:04:08;10.60;99.90
60293;DHT22;52402;52.670;6.750;2022-09-27T08:06:33;10.70;99.90
60293;DHT22;52402;52.670;6.750;2022-09-27T08:08:59;10.80;99.90
60293;DHT22;52402;52.670;6.750;2022-09-27T08:11:26;10.90;99.90
60293;DHT22;52402;52.670;6.750;2022-09-27T08:13:53;10.90;99.90
60293;DHT22;52402;52.670;6.750;2022-09-27T08:16:19;11.10;99.90
60293;DHT22;52402;52.670;6.750;2022-09-27T08:18:46;11.20;99.90
60293;DHT22;52402;52.670;6.750;2022-09-27T08:21:13;11.20;99.90
60293;DHT22;52402;52.670;6.750;2022-09-27T08:23:40;11.20;99.90
60293;DHT22;52402;52.670;6.750;2022-09-27T08:26:07;11.20;99.90
60293;DHT22;52402;52.670;6.750;2022-09-27T08:28:33;11.30;99.90
60293;DHT22;52402;52.670;6.750;2022-09-27T08:30:58;11.20;99.90
60293;DHT22;52402;52.670;6.750;2022-09-27T08:33:24;11.20;99.90
60293;DHT22;52402;52.670;6.750;2022-09-27T08:35:51;11.20;99.90
60293;DHT22;52402;52.670;6.750;2022-09-27T08:38:17;11.20;99.90
60293;DHT22;52402;52.670;6.750;2022-09-27T08:40:56;11.20;99.90
60293;DHT22;52402;52.670;6.750;2022-09-27T08:48:38;11.30;99.90
60293;DHT22;52402;52.670;6.750;2022-09-27T08:51:05;11.30;99.90
60293;DHT22;52402;52.670;6.750;2022-09-27T08:53:40;11.30;99.90
60293;DHT22;52402;52.670;6.750;2022-09-27T08:56:08;11.40;99.90
60293;DHT22;52402;52.670;6.750;2022-09-27T08:58:35;11.60;99.90
60293;DHT22;52402;52.670;6.750;2022-09-27T09:01:09;11.80;99.90
60293;DHT22;52402;52.670;6.750;2022-09-27T09:03:40;12.00;99.90
60293;DHT22;52402;52.670;6.750;2022-09-27T09:06:24;12.00;99.90
60293;DHT22;52402;52.670;6.750;2022-09-27T09:17:27;12.60;99.90
60293;DHT22;52402;52.670;6.750;2022-09-27T09:26:08;12.90;99.90
60293;DHT22;52402;52.670;6.750;2022-09-27T09:31:40;12.60;99.90
60293;DHT22;52402;52.670;6.750;2022-09-27T09:39:49;12.70;99.90
60293;DHT22;52402;52.670;6.750;2022-09-27T09:44:58;12.70;99.90
60293;DHT22;52402;52.670;6.750;2022-09-27T09:47:31;12.70;99.90
60293;DHT22;52402;52.670;6.750;2022-09-27T09:50:04;12.80;99.90
60293;DHT22;52402;52.670;6.750;2022-09-27T09:52:41;12.90;99.90
60293;DHT22;52402;52.670;6.750;2022-09-27T09:55:22;12.80;99.90
60293;DHT22;52402;52.670;6.750;2022-09-27T09:58:21;12.60;99.90
60293;DHT22;52402;52.670;6.750;2022-09-27T10:00:50;12.50;99.90
60293;DHT22;52402;52.670;6.750;2022-09-27T10:03:17;12.50;99.90
60293;DHT22;52402;52.670;6.750;2022-09-27T10:05:44;12.30;99.90
60293;DHT22;52402;52.670;6.750;2022-09-27T10:08:21;12.30;99.90
60293;DHT22;52402;52.670;6.750;2022-09-27T10:10:47;12.30;99.90
60293;DHT22;52402;52.670;6.750;2022-09-27T10:13:18;12.30;99.90
60293;DHT22;52402;52.670;6.750;2022-09-27T10:16:01;12.20;99.90
60293;DHT22;52402;52.670;6.750;2022-09-27T10:18:28;12.10;99.90
60293;DHT22;52402;52.670;6.750;2022-09-27T10:20:59;12.10;99.90
60293;DHT22;52402;52.670;6.750;2022-09-27T10:23:25;12.00;99.90
60293;DHT22;52402;52.670;6.750;2022-09-27T10:25:58;12.00;99.90
60293;DHT22;52402;52.670;6.750;2022-09-27T10:28:39;11.90;99.90
60293;DHT22;52402;52.670;6.750;2022-09-27T10:31:16;11.90;99.90
60293;DHT22;52402;52.670;6.750;2022-09-27T10:36:28;12.20;99.90
60293;DHT22;52402;52.670;6.750;2022-09-27T10:38:59;12.30;99.90
60293;DHT22;52402;52.670;6.750;2022-09-27T10:41:38;12.40;99.90
60293;DHT22;52402;52.670;6.750;2022-09-27T10:46:47;12.50;99.90
60293;DHT22;52402;52.670;6.750;2022-09-27T10:49:27;12.60;99.90
60293;DHT22;52402;52.670;6.750;2022-09-27T10:51:57;12.70;99.90
60293;DHT22;52402;52.670;6.750;2022-09-27T10:54:26;12.60;99.90
60293;DHT22;52402;52.670;6.750;2022-09-27T10:57:01;12.60;99.90
60293;DHT22;52402;52.670;6.750;2022-09-27T10:59:34;12.70;99.90
60293;DHT22;52402;52.670;6.750;2022-09-27T11:02:02;12.80;99.90
60293;DHT22;52402;52.670;6.750;2022-09-27T11:04:34;12.90;99.90
60293;DHT22;52402;52.670;6.750;2022-09-27T11:07:18;12.90;99.90
60293;DHT22;52402;52.670;6.750;2022-09-27T11:09:53;12.90;99.90
60293;DHT22;52402;52.670;6.750;2022-09-27T11:12:20;12.90;99.90
60293;DHT22;52402;52.670;6.750;2022-09-27T11:15:00;12.80;99.90
60293;DHT22;52402;52.670;6.750;2022-09-27T11:22:59;13.00;99.90
60293;DHT22;52402;52.670;6.750;2022-09-27T11:27:58;13.20;99.90
60293;DHT22;52402;52.670;6.750;2022-09-27T11:30:37;13.20;99.90
60293;DHT22;52402;52.670;6.750;2022-09-27T11:33:24;13.10;99.90
60293;DHT22;52402;52.670;6.750;2022-09-27T11:36:22;12.80;99.90
60293;DHT22;52402;52.670;6.750;2022-09-27T11:41:57;12.30;99.90
60293;DHT22;52402;52.670;6.750;2022-09-27T11:47:24;12.20;99.90
60293;DHT22;52402;52.670;6.750;2022-09-27T11:55:50;12.40;99.90
60293;DHT22;52402;52.670;6.750;2022-09-27T11:58:52;12.20;99.90
60293;DHT22;52402;52.670;6.750;2022-09-27T12:01:48;12.10;99.90
60293;DHT22;52402;52.670;6.750;2022-09-27T12:04:18;12.00;99.90
60293;DHT22;52402;52.670;6.750;2022-09-27T12:09:22;12.10;99.90
60293;DHT22;52402;52.670;6.750;2022-09-27T12:11:54;12.20;99.90
60293;DHT22;52402;52.670;6.750;2022-09-27T12:14:44;12.30;99.90
60293;DHT22;52402;52.670;6.750;2022-09-27T12:17:23;12.40;99.90
60293;DHT22;52402;52.670;6.750;2022-09-27T12:19:58;12.50;99.90
60293;DHT22;52402;52.670;6.750;2022-09-27T12:22:33;12.40;99.90
60293;DHT22;52402;52.670;6.750;2022-09-27T12:25:00;12.50;99.90
60293;DHT22;52402;52.670;6.750;2022-09-27T12:27:33;12.40;99.90
60293;DHT22;52402;52.670;6.750;2022-09-27T12:30:01;12.30;99.90
60293;DHT22;52402;52.670;6.750;2022-09-27T12:32:32;12.40;99.90
60293;DHT22;52402;52.670;6.750;2022-09-27T12:37:40;12.40;99.90
60293;DHT22;52402;52.670;6.750;2022-09-27T12:40:17;12.50;99.90
60293;DHT22;52402;52.670;6.750;2022-09-27T12:45:27;12.50;99.90
60293;DHT22;52402;52.670;6.750;2022-09-27T12:50:34;12.90;99.90
60293;DHT22;52402;52.670;6.750;2022-09-27T12:53:31;13.20;99.90
60293;DHT22;52402;52.670;6.750;2022-09-27T12:59:12;13.90;99.90
60293;DHT22;52402;52.670;6.750;2022-09-27T13:09:50;13.80;99.90
60293;DHT22;52402;52.670;6.750;2022-09-27T13:12:23;13.90;99.90
60293;DHT22;52402;52.670;6.750;2022-09-27T13:15:03;13.80;99.90
60293;DHT22;52402;52.670;6.750;2022-09-27T13:17:47;13.50;99.90
60293;DHT22;52402;52.670;6.750;2022-09-27T13:22:53;13.70;99.90
60293;DHT22;52402;52.670;6.750;2022-09-27T13:33:44;13.70;99.90
60293;DHT22;52402;52.670;6.750;2022-09-27T13:47:03;12.60;99.90
60293;DHT22;52402;52.670;6.750;2022-09-27T13:49:46;12.50;99.90
60293;DHT22;52402;52.670;6.750;2022-09-27T13:52:35;12.50;99.90
60293;DHT22;52402;52.670;6.750;2022-09-27T13:55:15;12.50;99.90
60293;DHT22;52402;52.670;6.750;2022-09-27T13:58:00;12.50;99.90
60293;DHT22;52402;52.670;6.750;2022-09-27T14:00:41;12.60;99.90
60293;DHT22;52402;52.670;6.750;2022-09-27T14:05:51;12.70;99.90
60293;DHT22;52402;52.670;6.750;2022-09-27T14:11:11;12.80;99.90
60293;DHT22;52402;52.670;6.750;2022-09-27T14:13:38;12.80;99.90
60293;DHT22;52402;52.670;6.750;2022-09-27T14:16:06;12.70;99.90
60293;DHT22;52402;52.670;6.750;2022-09-27T14:18:33;12.80;99.90
60293;DHT22;52402;52.670;6.750;2022-09-27T14:21:35;12.90;99.90
60293;DHT22;52402;52.670;6.750;2022-09-27T14:24:23;12.80;99.90
60293;DHT22;52402;52.670;6.750;2022-09-27T14:27:02;12.60;99.90
60293;DHT22;52402;52.670;6.750;2022-09-27T14:29:32;12.60;99.90
60293;DHT22;52402;52.670;6.750;2022-09-27T14:32:02;12.40;99.90
60293;DHT22;52402;52.670;6.750;2022-09-27T14:34:28;12.50;99.90
60293;DHT22;52402;52.670;6.750;2022-09-27T14:36:55;12.40;99.90
60293;DHT22;52402;52.670;6.750;2022-09-27T14:39:40;12.50;99.90
60293;DHT22;52402;52.670;6.750;2022-09-27T14:42:18;12.50;99.90
60293;DHT22;52402;52.670;6.750;2022-09-27T14:44:45;12.50;99.90
60293;DHT22;52402;52.670;6.750;2022-09-27T14:47:18;12.50;99.90
60293;DHT22;52402;52.670;6.750;2022-09-27T14:49:52;12.60;99.90
60293;DHT22;52402;52.670;6.750;2022-09-27T14:52:23;12.60;99.90
60293;DHT22;52402;52.670;6.750;2022-09-27T14:55:11;12.60;99.90
60293;DHT22;52402;52.670;6.750;2022-09-27T14:57:39;12.50;99.90
60293;DHT22;52402;52.670;6.750;2022-09-27T15:00:30;12.50;99.90
60293;DHT22;52402;52.670;6.750;2022-09-27T15:02:58;12.50;99.90
60293;DHT22;52402;52.670;6.750;2022-09-27T15:05:30;12.30;99.90
60293;DHT22;52402;52.670;6.750;2022-09-27T15:07:58;12.30;99.90
60293;DHT22;52402;52.670;6.750;2022-09-27T15:10:28;12.20;99.90
60293;DHT22;52402;52.670;6.750;2022-09-27T15:12:56;12.10;99.90
60293;DHT22;52402;52.670;6.750;2022-09-27T15:15:27;12.10;99.90
60293;DHT22;52402;52.670;6.750;2022-09-27T15:17:56;12.10;99.90
60293;DHT22;52402;52.670;6.750;2022-09-27T15:22:49;12.20;99.90
60293;DHT22;52402;52.670;6.750;2022-09-27T15:27:56;12.30;99.90
60293;DHT22;52402;52.670;6.750;2022-09-27T15:30:32;12.20;99.90
60293;DHT22;52402;52.670;6.750;2022-09-27T15:32:58;12.20;99.90
60293;DHT22;52402;52.670;6.750;2022-09-27T15:35:27;12.10;99.90
60293;DHT22;52402;52.670;6.750;2022-09-27T15:38:21;12.00;99.90
60293;DHT22;52402;52.670;6.750;2022-09-27T15:46:00;11.70;99.90
60293;DHT22;52402;52.670;6.750;2022-09-27T15:48:29;11.70;99.90
60293;DHT22;52402;52.670;6.750;2022-09-27T15:50:57;11.70;99.90
60293;DHT22;52402;52.670;6.750;2022-09-27T15:56:01;11.70;99.90
60293;DHT22;52402;52.670;6.750;2022-09-27T15:58:28;11.70;99.90
60293;DHT22;52402;52.670;6.750;2022-09-27T16:00:57;11.80;99.90
60293;DHT22;52402;52.670;6.750;2022-09-27T16:03:24;11.70;99.90
60293;DHT22;52402;52.670;6.750;2022-09-27T16:05:51;11.70;99.90
60293;DHT22;52402;52.670;6.750;2022-09-27T16:08:17;11.60;99.90
60293;DHT22;52402;52.670;6.750;2022-09-27T16:10:47;11.60;99.90
60293;DHT22;52402;52.670;6.750;2022-09-27T16:13:13;11.60;99.90
60293;DHT22;52402;52.670;6.750;2022-09-27T16:15:39;11.50;99.90
60293;DHT22;52402;52.670;6.750;2022-09-27T16:18:05;11.50;99.90
60293;DHT22;52402;52.670;6.750;2022-09-27T16:20:30;11.50;99.90
60293;DHT22;52402;52.670;6.750;2022-09-27T16:22:57;11.40;99.90
60293;DHT22;52402;52.670;6.750;2022-09-27T16:25:23;11.30;99.90
60293;DHT22;52402;52.670;6.750;2022-09-27T16:27:50;11.30;99.90
60293;DHT22;52402;52.670;6.750;2022-09-27T16:30:18;11.20;99.90
60293;DHT22;52402;52.670;6.750;2022-09-27T16:32:46;11.20;99.90
60293;DHT22;52402;52.670;6.750;2022-09-27T16:35:14;11.20;99.90
60293;DHT22;52402;52.670;6.750;2022-09-27T16:37:40;11.10;99.90
60293;DHT22;52402;52.670;6.750;2022-09-27T16:40:07;11.10;99.90
60293;DHT22;52402;52.670;6.750;2022-09-27T16:42:34;11.00;99.90
60293;DHT22;52402;52.670;6.750;2022-09-27T16:45:00;11.00;99.90
60293;DHT22;52402;52.670;6.750;2022-09-27T16:47:29;11.00;99.90
60293;DHT22;52402;52.670;6.750;2022-09-27T16:49:55;11.00;99.90
60293;DHT22;52402;52.670;6.750;2022-09-27T16:52:41;10.90;99.90
60293;DHT22;52402;52.670;6.750;2022-09-27T16:55:12;10.90;99.90
60293;DHT22;52402;52.670;6.750;2022-09-27T16:57:38;10.90;99.90
60293;DHT22;52402;52.670;6.750;2022-09-27T17:00:05;10.80;99.90
60293;DHT22;52402;52.670;6.750;2022-09-27T17:02:31;10.90;99.90
60293;DHT22;52402;52.670;6.750;2022-09-27T17:04:57;10.90;99.90
60293;DHT22;52402;52.670;6.750;2022-09-27T17:07:23;10.80;99.90
60293;DHT22;52402;52.670;6.750;2022-09-27T17:09:49;10.80;99.90
60293;DHT22;52402;52.670;6.750;2022-09-27T17:12:15;10.80;99.90
60293;DHT22;52402;52.670;6.750;2022-09-27T17:14:41;10.80;99.90
60293;DHT22;52402;52.670;6.750;2022-09-27T17:17:08;10.80;99.90
60293;DHT22;52402;52.670;6.750;2022-09-27T17:19:33;10.70;99.90
60293;DHT22;52402;52.670;6.750;2022-09-27T17:21:59;10.60;99.90
60293;DHT22;52402;52.670;6.750;2022-09-27T17:24:26;10.50;99.90
60293;DHT22;52402;52.670;6.750;2022-09-27T17:26:53;10.50;99.90
60293;DHT22;52402;52.670;6.750;2022-09-27T17:29:19;10.40;99.90
60293;DHT22;52402;52.670;6.750;2022-09-27T17:31:45;10.30;99.90
60293;DHT22;52402;52.670;6.750;2022-09-27T17:34:12;10.30;99.90
60293;DHT22;52402;52.670;6.750;2022-09-27T17:36:42;10.30;99.90
60293;DHT22;52402;52.670;6.750;2022-09-27T17:39:14;10.20;99.90
60293;DHT22;52402;52.670;6.750;2022-09-27T17:41:40;10.10;99.90
60293;DHT22;52402;52.670;6.750;2022-09-27T17:44:08;10.10;99.90
60293;DHT22;52402;52.670;6.750;2022-09-27T17:46:36;10.10;99.90
60293;DHT22;52402;52.670;6.750;2022-09-27T17:49:02;10.00;99.90
60293;DHT22;52402;52.670;6.750;2022-09-27T17:51:48;10.00;99.90
60293;DHT22;52402;52.670;6.750;2022-09-27T17:54:15;9.90;99.90
60293;DHT22;52402;52.670;6.750;2022-09-27T17:56:43;9.90;99.90
60293;DHT22;52402;52.670;6.750;2022-09-27T17:59:10;9.90;99.90
60293;DHT22;52402;52.670;6.750;2022-09-27T18:01:36;9.80;99.90
60293;DHT22;52402;52.670;6.750;2022-09-27T18:04:03;9.80;99.90
60293;DHT22;52402;52.670;6.750;2022-09-27T18:06:30;9.80;99.90
60293;DHT22;52402;52.670;6.750;2022-09-27T18:08:56;9.80;99.90
60293;DHT22;52402;52.670;6.750;2022-09-27T18:11:24;9.80;99.90
60293;DHT22;52402;52.670;6.750;2022-09-27T18:13:57;9.80;99.90
60293;DHT22;52402;52.670;6.750;2022-09-27T18:16:25;9.70;99.90
60293;DHT22;52402;52.670;6.750;2022-09-27T18:18:54;9.70;99.90
60293;DHT22;52402;52.670;6.750;2022-09-27T18:21:20;9.70;99.90
60293;DHT22;52402;52.670;6.750;2022-09-27T18:23:48;9.60;99.90
60293;DHT22;52402;52.670;6.750;2022-09-27T18:26:16;9.60;99.90